sensor_id;sensor_type;location;lat;lon;timestamp;P1;durP1;ratioP1;P2;durP2;ratioP2
8268;SDS011;4174;48.304;16.364;2022-10-16T00:04:26;54.75;;;29.05;;
8268;SDS011;4174;48.304;16.364;2022-10-16T00:10:31;58.85;;;29.85;;
8268;SDS011;4174;48.304;16.364;2022-10-16T00:16:36;56.78;;;30.08;;
8268;SDS011;4174;48.304;16.364;2022-10-16T00:22:39;56.22;;;30.20;;
8268;SDS011;4174;48.304;16.364;2022-10-16T00:28:45;59.90;;;30.23;;
8268;SDS011;4174;48.304;16.364;2022-10-16T00:34:48;54.60;;;29.08;;
8268;SDS011;4174;48.304;16.364;2022-10-16T00:40:52;61.83;;;30.17;;
8268;SDS011;4174;48.304;16.364;2022-10-16T00:46:55;58.25;;;31.85;;
8268;SDS011;4174;48.304;16.364;2022-10-16T00:53:00;54.55;;;28.20;;
8268;SDS011;4174;48.304;16.364;2022-10-16T00:59:03;52.63;;;28.73;;
8268;SDS011;4174;48.304;16.364;2022-10-16T01:05:07;50.30;;;28.10;;
8268;SDS011;4174;48.304;16.364;2022-10-16T01:11:14;58.38;;;30.60;;
8268;SDS011;4174;48.304;16.364;2022-10-16T01:17:23;53.73;;;29.30;;
8268;SDS011;4174;48.304;16.364;2022-10-16T01:29:54;52.90;;;28.17;;
8268;SDS011;4174;48.304;16.364;2022-10-16T01:36:03;57.23;;;30.10;;
8268;SDS011;4174;48.304;16.364;2022-10-16T01:42:08;59.40;;;30.52;;
8268;SDS011;4174;48.304;16.364;2022-10-16T01:48:11;57.33;;;29.98;;
8268;SDS011;4174;48.304;16.364;2022-10-16T01:54:14;64.87;;;32.27;;
8268;SDS011;4174;48.304;16.364;2022-10-16T02:00:17;65.40;;;31.90;;
8268;SDS011;4174;48.304;16.364;2022-10-16T02:06:20;63.03;;;30.80;;
8268;SDS011;4174;48.304;16.364;2022-10-16T02:12:25;63.50;;;31.40;;
8268;SDS011;4174;48.304;16.364;2022-10-16T02:18:27;59.67;;;30.42;;
8268;SDS011;4174;48.304;16.364;2022-10-16T02:24:33;57.47;;;30.23;;
8268;SDS011;4174;48.304;16.364;2022-10-16T02:30:38;58.07;;;30.23;;
8268;SDS011;4174;48.304;16.364;2022-10-16T02:36:44;60.57;;;31.20;;
8268;SDS011;4174;48.304;16.364;2022-10-16T02:42:49;60.30;;;30.70;;
8268;SDS011;4174;48.304;16.364;2022-10-16T02:48:50;57.10;;;29.93;;
8268;SDS011;4174;48.304;16.364;2022-10-16T02:54:54;61.00;;;29.58;;
8268;SDS011;4174;48.304;16.364;2022-10-16T03:00:58;63.70;;;31.33;;
8268;SDS011;4174;48.304;16.364;2022-10-16T03:07:02;61.20;;;30.17;;
8268;SDS011;4174;48.304;16.364;2022-10-16T03:13:05;62.57;;;31.27;;
8268;SDS011;4174;48.304;16.364;2022-10-16T03:19:09;58.40;;;29.75;;
8268;SDS011;4174;48.304;16.364;2022-10-16T03:25:13;56.87;;;30.00;;
8268;SDS011;4174;48.304;16.364;2022-10-16T03:31:17;55.50;;;28.90;;
8268;SDS011;4174;48.304;16.364;2022-10-16T03:37:20;55.23;;;28.63;;
8268;SDS011;4174;48.304;16.364;2022-10-16T03:43:24;53.55;;;27.65;;
8268;SDS011;4174;48.304;16.364;2022-10-16T03:49:28;50.90;;;27.63;;
8268;SDS011;4174;48.304;16.364;2022-10-16T03:55:32;52.30;;;28.10;;
8268;SDS011;4174;48.304;16.364;2022-10-16T04:01:36;49.97;;;27.40;;
8268;SDS011;4174;48.304;16.364;2022-10-16T04:07:40;51.40;;;27.70;;
8268;SDS011;4174;48.304;16.364;2022-10-16T04:13:44;49.50;;;27.45;;
8268;SDS011;4174;48.304;16.364;2022-10-16T04:19:48;51.60;;;27.03;;
8268;SDS011;4174;48.304;16.364;2022-10-16T04:25:52;47.35;;;25.85;;
8268;SDS011;4174;48.304;16.364;2022-10-16T04:31:56;54.03;;;28.07;;
8268;SDS011;4174;48.304;16.364;2022-10-16T04:38:01;51.15;;;27.48;;
8268;SDS011;4174;48.304;16.364;2022-10-16T04:44:06;50.65;;;27.17;;
8268;SDS011;4174;48.304;16.364;2022-10-16T04:50:10;48.63;;;25.88;;
8268;SDS011;4174;48.304;16.364;2022-10-16T04:56:13;53.67;;;27.15;;
8268;SDS011;4174;48.304;16.364;2022-10-16T05:02:17;49.50;;;26.70;;
8268;SDS011;4174;48.304;16.364;2022-10-16T05:08:20;48.07;;;26.03;;
8268;SDS011;4174;48.304;16.364;2022-10-16T05:14:24;47.45;;;25.23;;
8268;SDS011;4174;48.304;16.364;2022-10-16T05:20:29;45.77;;;24.80;;
8268;SDS011;4174;48.304;16.364;2022-10-16T05:26:32;46.85;;;25.62;;
8268;SDS011;4174;48.304;16.364;2022-10-16T05:32:36;50.00;;;27.20;;
8268;SDS011;4174;48.304;16.364;2022-10-16T05:38:40;54.93;;;28.30;;
8268;SDS011;4174;48.304;16.364;2022-10-16T05:44:44;59.47;;;29.90;;
8268;SDS011;4174;48.304;16.364;2022-10-16T05:50:48;50.87;;;27.10;;
8268;SDS011;4174;48.304;16.364;2022-10-16T05:56:51;56.22;;;28.80;;
8268;SDS011;4174;48.304;16.364;2022-10-16T06:02:55;68.67;;;30.33;;
8268;SDS011;4174;48.304;16.364;2022-10-16T06:08:59;65.40;;;28.48;;
8268;SDS011;4174;48.304;16.364;2022-10-16T06:15:04;72.40;;;26.42;;
8268;SDS011;4174;48.304;16.364;2022-10-16T06:21:10;93.85;;;31.85;;
8268;SDS011;4174;48.304;16.364;2022-10-16T06:27:12;97.90;;;30.70;;
8268;SDS011;4174;48.304;16.364;2022-10-16T06:33:17;94.80;;;32.03;;
8268;SDS011;4174;48.304;16.364;2022-10-16T06:39:21;98.80;;;29.50;;
8268;SDS011;4174;48.304;16.364;2022-10-16T06:45:24;107.53;;;31.40;;
8268;SDS011;4174;48.304;16.364;2022-10-16T06:51:29;105.10;;;31.27;;
8268;SDS011;4174;48.304;16.364;2022-10-16T06:57:34;89.82;;;30.15;;
8268;SDS011;4174;48.304;16.364;2022-10-16T07:03:39;89.03;;;31.15;;
8268;SDS011;4174;48.304;16.364;2022-10-16T07:09:42;112.60;;;31.43;;
8268;SDS011;4174;48.304;16.364;2022-10-16T07:15:45;120.13;;;34.50;;
8268;SDS011;4174;48.304;16.364;2022-10-16T07:21:49;105.32;;;33.25;;
8268;SDS011;4174;48.304;16.364;2022-10-16T07:27:53;111.17;;;34.20;;
8268;SDS011;4174;48.304;16.364;2022-10-16T07:33:57;102.20;;;34.65;;
8268;SDS011;4174;48.304;16.364;2022-10-16T07:39:59;96.00;;;35.10;;
8268;SDS011;4174;48.304;16.364;2022-10-16T07:46:04;115.47;;;35.13;;
8268;SDS011;4174;48.304;16.364;2022-10-16T07:52:07;104.80;;;35.77;;
8268;SDS011;4174;48.304;16.364;2022-10-16T07:58:11;104.97;;;34.72;;
8268;SDS011;4174;48.304;16.364;2022-10-16T08:04:16;105.07;;;35.78;;
8268;SDS011;4174;48.304;16.364;2022-10-16T08:10:21;96.47;;;34.80;;
8268;SDS011;4174;48.304;16.364;2022-10-16T08:16:23;98.50;;;36.03;;
8268;SDS011;4174;48.304;16.364;2022-10-16T08:22:27;96.00;;;36.17;;
8268;SDS011;4174;48.304;16.364;2022-10-16T08:28:31;89.80;;;34.38;;
8268;SDS011;4174;48.304;16.364;2022-10-16T08:34:36;86.33;;;33.10;;
8268;SDS011;4174;48.304;16.364;2022-10-16T08:40:39;92.97;;;34.30;;
8268;SDS011;4174;48.304;16.364;2022-10-16T08:46:47;88.68;;;33.60;;
8268;SDS011;4174;48.304;16.364;2022-10-16T08:52:50;93.03;;;35.47;;
8268;SDS011;4174;48.304;16.364;2022-10-16T08:58:54;91.95;;;34.83;;
8268;SDS011;4174;48.304;16.364;2022-10-16T09:05:00;98.67;;;36.40;;
8268;SDS011;4174;48.304;16.364;2022-10-16T09:11:10;86.83;;;33.97;;
8268;SDS011;4174;48.304;16.364;2022-10-16T09:17:37;84.13;;;34.58;;
8268;SDS011;4174;48.304;16.364;2022-10-16T09:23:40;82.37;;;34.53;;
8268;SDS011;4174;48.304;16.364;2022-10-16T09:29:43;76.07;;;31.77;;
8268;SDS011;4174;48.304;16.364;2022-10-16T09:35:50;71.70;;;31.25;;
8268;SDS011;4174;48.304;16.364;2022-10-16T09:41:52;56.83;;;26.83;;
8268;SDS011;4174;48.304;16.364;2022-10-16T09:47:55;60.73;;;27.60;;
8268;SDS011;4174;48.304;16.364;2022-10-16T09:54:00;64.15;;;29.30;;
8268;SDS011;4174;48.304;16.364;2022-10-16T10:00:07;64.60;;;29.77;;
8268;SDS011;4174;48.304;16.364;2022-10-16T10:06:14;63.50;;;28.93;;
8268;SDS011;4174;48.304;16.364;2022-10-16T10:18:23;64.37;;;30.25;;
8268;SDS011;4174;48.304;16.364;2022-10-16T10:24:26;64.03;;;29.63;;
8268;SDS011;4174;48.304;16.364;2022-10-16T10:36:57;63.92;;;29.00;;
8268;SDS011;4174;48.304;16.364;2022-10-16T10:49:44;54.93;;;27.30;;
8268;SDS011;4174;48.304;16.364;2022-10-16T10:56:04;54.80;;;27.00;;
8268;SDS011;4174;48.304;16.364;2022-10-16T11:02:15;50.70;;;26.93;;
8268;SDS011;4174;48.304;16.364;2022-10-16T11:08:21;46.10;;;24.67;;
8268;SDS011;4174;48.304;16.364;2022-10-16T11:14:24;43.80;;;23.07;;
8268;SDS011;4174;48.304;16.364;2022-10-16T11:20:30;42.23;;;22.80;;
8268;SDS011;4174;48.304;16.364;2022-10-16T11:26:34;41.08;;;22.60;;
8268;SDS011;4174;48.304;16.364;2022-10-16T11:39:20;41.95;;;23.58;;
8268;SDS011;4174;48.304;16.364;2022-10-16T11:51:38;42.10;;;23.53;;
8268;SDS011;4174;48.304;16.364;2022-10-16T11:57:44;43.45;;;24.05;;
8268;SDS011;4174;48.304;16.364;2022-10-16T12:03:52;46.53;;;24.13;;
8268;SDS011;4174;48.304;16.364;2022-10-16T12:09:51;43.80;;;23.67;;
8268;SDS011;4174;48.304;16.364;2022-10-16T12:22:15;41.95;;;23.55;;
8268;SDS011;4174;48.304;16.364;2022-10-16T12:34:39;40.42;;;22.70;;
8268;SDS011;4174;48.304;16.364;2022-10-16T12:40:46;38.70;;;21.87;;
8268;SDS011;4174;48.304;16.364;2022-10-16T12:46:48;38.08;;;21.35;;
8268;SDS011;4174;48.304;16.364;2022-10-16T12:52:51;39.00;;;22.37;;
8268;SDS011;4174;48.304;16.364;2022-10-16T12:59:13;39.37;;;22.23;;
8268;SDS011;4174;48.304;16.364;2022-10-16T13:12:12;39.97;;;22.65;;
8268;SDS011;4174;48.304;16.364;2022-10-16T13:18:26;39.17;;;22.00;;
8268;SDS011;4174;48.304;16.364;2022-10-16T13:24:49;39.23;;;21.67;;
8268;SDS011;4174;48.304;16.364;2022-10-16T13:31:14;39.43;;;22.43;;
8268;SDS011;4174;48.304;16.364;2022-10-16T13:37:19;39.80;;;22.30;;
8268;SDS011;4174;48.304;16.364;2022-10-16T13:43:23;37.90;;;21.50;;
8268;SDS011;4174;48.304;16.364;2022-10-16T13:49:41;36.92;;;21.87;;
8268;SDS011;4174;48.304;16.364;2022-10-16T13:55:45;34.35;;;20.02;;
8268;SDS011;4174;48.304;16.364;2022-10-16T14:01:49;32.95;;;19.23;;
8268;SDS011;4174;48.304;16.364;2022-10-16T14:07:53;32.90;;;18.03;;
8268;SDS011;4174;48.304;16.364;2022-10-16T14:13:55;32.28;;;18.77;;
8268;SDS011;4174;48.304;16.364;2022-10-16T14:19:59;32.15;;;18.35;;
8268;SDS011;4174;48.304;16.364;2022-10-16T14:26:11;31.05;;;17.98;;
8268;SDS011;4174;48.304;16.364;2022-10-16T14:32:22;29.33;;;16.65;;
8268;SDS011;4174;48.304;16.364;2022-10-16T14:38:24;30.30;;;16.93;;
8268;SDS011;4174;48.304;16.364;2022-10-16T14:44:28;30.15;;;17.58;;
8268;SDS011;4174;48.304;16.364;2022-10-16T14:50:31;29.47;;;16.70;;
8268;SDS011;4174;48.304;16.364;2022-10-16T14:56:46;29.27;;;16.07;;
8268;SDS011;4174;48.304;16.364;2022-10-16T15:02:51;28.80;;;15.88;;
8268;SDS011;4174;48.304;16.364;2022-10-16T15:08:55;28.48;;;16.17;;
8268;SDS011;4174;48.304;16.364;2022-10-16T15:14:59;28.77;;;16.10;;
8268;SDS011;4174;48.304;16.364;2022-10-16T15:21:04;28.58;;;16.20;;
8268;SDS011;4174;48.304;16.364;2022-10-16T15:27:08;27.08;;;15.40;;
8268;SDS011;4174;48.304;16.364;2022-10-16T15:33:13;28.77;;;15.77;;
8268;SDS011;4174;48.304;16.364;2022-10-16T15:39:18;27.60;;;15.77;;
8268;SDS011;4174;48.304;16.364;2022-10-16T15:45:20;29.23;;;15.53;;
8268;SDS011;4174;48.304;16.364;2022-10-16T15:51:25;28.50;;;15.75;;
8268;SDS011;4174;48.304;16.364;2022-10-16T15:57:28;31.90;;;16.90;;
8268;SDS011;4174;48.304;16.364;2022-10-16T16:03:33;31.57;;;16.43;;
8268;SDS011;4174;48.304;16.364;2022-10-16T16:09:37;28.70;;;16.10;;
8268;SDS011;4174;48.304;16.364;2022-10-16T16:15:41;34.83;;;18.15;;
8268;SDS011;4174;48.304;16.364;2022-10-16T16:21:45;33.20;;;18.15;;
8268;SDS011;4174;48.304;16.364;2022-10-16T16:27:48;33.67;;;17.43;;
8268;SDS011;4174;48.304;16.364;2022-10-16T16:33:51;31.83;;;16.98;;
8268;SDS011;4174;48.304;16.364;2022-10-16T16:39:54;30.37;;;17.00;;
8268;SDS011;4174;48.304;16.364;2022-10-16T16:45:59;30.90;;;17.10;;
8268;SDS011;4174;48.304;16.364;2022-10-16T16:52:00;35.50;;;18.23;;
8268;SDS011;4174;48.304;16.364;2022-10-16T16:58:04;30.85;;;16.58;;
8268;SDS011;4174;48.304;16.364;2022-10-16T17:04:08;30.02;;;16.23;;
8268;SDS011;4174;48.304;16.364;2022-10-16T17:10:13;28.58;;;15.70;;
8268;SDS011;4174;48.304;16.364;2022-10-16T17:16:17;30.83;;;16.30;;
8268;SDS011;4174;48.304;16.364;2022-10-16T17:22:20;31.17;;;16.87;;
8268;SDS011;4174;48.304;16.364;2022-10-16T17:28:23;29.97;;;15.93;;
8268;SDS011;4174;48.304;16.364;2022-10-16T17:34:28;29.12;;;15.63;;
8268;SDS011;4174;48.304;16.364;2022-10-16T17:40:32;30.95;;;15.80;;
8268;SDS011;4174;48.304;16.364;2022-10-16T17:46:35;30.93;;;16.20;;
8268;SDS011;4174;48.304;16.364;2022-10-16T17:52:39;30.70;;;16.03;;
8268;SDS011;4174;48.304;16.364;2022-10-16T17:58:46;30.58;;;16.45;;
8268;SDS011;4174;48.304;16.364;2022-10-16T18:04:49;32.33;;;16.53;;
8268;SDS011;4174;48.304;16.364;2022-10-16T18:10:52;31.80;;;16.33;;
8268;SDS011;4174;48.304;16.364;2022-10-16T18:16:56;33.37;;;16.10;;
8268;SDS011;4174;48.304;16.364;2022-10-16T18:23:00;31.02;;;16.50;;
8268;SDS011;4174;48.304;16.364;2022-10-16T18:29:03;33.47;;;16.90;;
8268;SDS011;4174;48.304;16.364;2022-10-16T18:35:07;33.47;;;17.17;;
8268;SDS011;4174;48.304;16.364;2022-10-16T18:41:12;34.53;;;17.60;;
8268;SDS011;4174;48.304;16.364;2022-10-16T18:47:15;35.92;;;18.08;;
8268;SDS011;4174;48.304;16.364;2022-10-16T18:53:18;34.53;;;17.40;;
8268;SDS011;4174;48.304;16.364;2022-10-16T18:59:21;34.28;;;17.52;;
8268;SDS011;4174;48.304;16.364;2022-10-16T19:05:25;34.50;;;17.37;;
8268;SDS011;4174;48.304;16.364;2022-10-16T19:11:29;35.58;;;17.48;;
8268;SDS011;4174;48.304;16.364;2022-10-16T19:17:32;36.20;;;17.93;;
8268;SDS011;4174;48.304;16.364;2022-10-16T19:23:36;32.28;;;16.83;;
8268;SDS011;4174;48.304;16.364;2022-10-16T19:29:39;34.20;;;17.70;;
8268;SDS011;4174;48.304;16.364;2022-10-16T19:35:43;35.72;;;17.90;;
8268;SDS011;4174;48.304;16.364;2022-10-16T19:41:48;36.15;;;17.73;;
8268;SDS011;4174;48.304;16.364;2022-10-16T19:47:51;37.07;;;17.80;;
8268;SDS011;4174;48.304;16.364;2022-10-16T19:53:56;36.17;;;18.87;;
8268;SDS011;4174;48.304;16.364;2022-10-16T19:59:58;36.92;;;18.02;;
8268;SDS011;4174;48.304;16.364;2022-10-16T20:06:01;34.40;;;17.57;;
8268;SDS011;4174;48.304;16.364;2022-10-16T20:12:06;35.95;;;18.17;;
8268;SDS011;4174;48.304;16.364;2022-10-16T20:18:10;36.63;;;18.85;;
8268;SDS011;4174;48.304;16.364;2022-10-16T20:24:14;39.33;;;20.33;;
8268;SDS011;4174;48.304;16.364;2022-10-16T20:30:17;37.23;;;18.60;;
8268;SDS011;4174;48.304;16.364;2022-10-16T20:36:21;34.88;;;18.50;;
8268;SDS011;4174;48.304;16.364;2022-10-16T20:42:23;36.70;;;18.90;;
8268;SDS011;4174;48.304;16.364;2022-10-16T20:48:28;38.38;;;19.27;;
8268;SDS011;4174;48.304;16.364;2022-10-16T20:54:32;38.88;;;18.83;;
8268;SDS011;4174;48.304;16.364;2022-10-16T21:00:36;37.90;;;19.13;;
8268;SDS011;4174;48.304;16.364;2022-10-16T21:06:40;38.50;;;18.95;;
8268;SDS011;4174;48.304;16.364;2022-10-16T21:12:44;41.13;;;19.23;;
8268;SDS011;4174;48.304;16.364;2022-10-16T21:18:48;39.75;;;19.58;;
8268;SDS011;4174;48.304;16.364;2022-10-16T21:24:51;38.20;;;19.27;;
8268;SDS011;4174;48.304;16.364;2022-10-16T21:30:56;38.83;;;19.60;;
8268;SDS011;4174;48.304;16.364;2022-10-16T21:36:59;38.70;;;19.58;;
8268;SDS011;4174;48.304;16.364;2022-10-16T21:43:03;40.60;;;20.17;;
8268;SDS011;4174;48.304;16.364;2022-10-16T21:49:09;39.92;;;20.08;;
8268;SDS011;4174;48.304;16.364;2022-10-16T21:55:12;37.60;;;19.05;;
8268;SDS011;4174;48.304;16.364;2022-10-16T22:01:17;41.30;;;19.40;;
8268;SDS011;4174;48.304;16.364;2022-10-16T22:07:19;38.50;;;19.13;;
8268;SDS011;4174;48.304;16.364;2022-10-16T22:13:22;42.13;;;20.23;;
8268;SDS011;4174;48.304;16.364;2022-10-16T22:19:26;43.37;;;19.57;;
8268;SDS011;4174;48.304;16.364;2022-10-16T22:25:32;41.15;;;19.70;;
8268;SDS011;4174;48.304;16.364;2022-10-16T22:31:33;39.90;;;20.03;;
8268;SDS011;4174;48.304;16.364;2022-10-16T22:37:37;39.03;;;19.58;;
8268;SDS011;4174;48.304;16.364;2022-10-16T22:43:41;38.70;;;19.83;;
8268;SDS011;4174;48.304;16.364;2022-10-16T22:49:44;38.45;;;19.17;;
8268;SDS011;4174;48.304;16.364;2022-10-16T22:55:48;35.83;;;18.52;;
8268;SDS011;4174;48.304;16.364;2022-10-16T23:01:52;40.05;;;19.05;;
8268;SDS011;4174;48.304;16.364;2022-10-16T23:07:56;38.63;;;19.80;;
8268;SDS011;4174;48.304;16.364;2022-10-16T23:13:59;39.97;;;19.00;;
8268;SDS011;4174;48.304;16.364;2022-10-16T23:20:04;40.93;;;19.93;;
8268;SDS011;4174;48.304;16.364;2022-10-16T23:26:10;37.97;;;19.17;;
8268;SDS011;4174;48.304;16.364;2022-10-16T23:32:14;40.22;;;19.73;;
8268;SDS011;4174;48.304;16.364;2022-10-16T23:38:18;42.20;;;20.17;;
8268;SDS011;4174;48.304;16.364;2022-10-16T23:44:21;40.30;;;20.57;;
8268;SDS011;4174;48.304;16.364;2022-10-16T23:50:25;40.73;;;19.50;;
8268;SDS011;4174;48.304;16.364;2022-10-16T23:56:29;40.92;;;19.92;;
